Aérodrome :
LOGIN :

S'inscrire | Disclaimer

   EN    FR    IT 

 










Légende :    VFR   VFR Marginal   IFR   IFR Intensif   IFR Très Intensif
Visi : 
Plafond : 
>= 8 km
>= 3000ft
5 à 8 km
1000 à 3000 ft
1500m à 5 km
500 à 1000 ft
800 à 1500m
200 à 500 ft
< 800m
< 200 ft
Symboles :   Orages  Brouillard  Fortes neiges  Fortes précipitations  Vent > 20 kt
SIGMETs :   Divers  Orages  Givrage  Turbulence  Onde Orograph.  Cendres Volcan.






- Altitude de l'aérodrome : 348 ft
- Code IATA : TSR


LRTR - Timisoara

DERNIER METAR :
  • 212330Z 36005KT 0600 R11/1100U R29/1300N FZFG VV002 M01/M01 Q1039

METARs EXPIRÉS :
  • 212300Z 35006KT 0300 R11/0600N R29/0650N FZFG VV002 M02/M02 Q1039
  • 212230Z 34005KT 0250 R11/0550U R29/0500N FZFG VV001 M02/M02 Q1040
  • 212200Z 33004KT 0200 R11/0400N R29/0450N FZFG VV001 M02/M02 Q1040
  • 212130Z 33004KT 0200 R11/0375N R29/0400N FZFG VV001 M02/M02 Q1040
  • 212100Z 31003KT 0200 R11/0350N R29/0400N FZFG VV001 M02/M02 Q1040

TAF TAF LRTR
Valide du 22 à 00h jusqu'au 23 à 00h UTC


212300Z 2200/2224 VRB04KT 0350 FZFG OVC001
TEMPO 2200/2206 0150 FZFG VV001
BECMG 2206/2208 0800 OVC002
BECMG 2208/2210 3000 BR BKN005
TEMPO 2211/2215 9999 NSW SCT010
BECMG 2216/2218 1500 BR
TEMPO 2220/2224 0600 FZFG OVC002



MET'MAP, la Météo Aéronautique d'un coup d'oeil ! - Copyright ORBIFLY Décembre 2007 - Disclaimer

ORBIFLY MET'MAP TEAM :

Programmation & Développement : Alexandra Zaïnal
Sur une idée originale de : Baudouin d'Aumeries
Assistance à la programmation : Marc-Olivier Méhu
Soutien technique & logistique : Manuel Goepfert

Contact : metmap@orbifly.com




SOURCES & CREDITS :

   NOAA